Time;durP1;ratioP1;P1;durP2;ratioP2;P2;SDS_P1;SDS_P2;PMS_P1;PMS_P2;Temp;Humidity;BMP_temperature;BMP_pressure;BME280_temperature;BME280_humidity;BME280_pressure;Samples;Min_cycle;Max_cycle;Signal;HPM_P1;HPM_P2
2023/09/11 00:02:40;;;;;;;6.20;5.70;;;27.30;74.90;;;;;;5064990;28;20418;-92
2023/09/11 00:05:29;;;;;;;5.70;4.97;;;27.30;75.10;;;;;;5070858;28;20480;-90
2023/09/11 00:08:16;;;;;;;4.70;4.30;;;27.30;76.30;;;;;;5070591;28;20458;-92
2023/09/11 00:11:03;;;;;;;5.53;5.13;;;27.30;76.50;;;;;;5073835;28;20481;-91
2023/09/11 00:13:49;;;;;;;5.20;4.70;;;27.30;77.60;;;;;;5076904;28;20465;-90
2023/09/11 00:16:36;;;;;;;5.47;4.97;;;27.30;84.80;;;;;;5076694;28;20450;-91
2023/09/11 00:19:23;;;;;;;5.53;5.13;;;27.30;77.30;;;;;;5067342;28;20491;-90
2023/09/11 00:22:11;;;;;;;5.10;4.60;;;27.30;74.00;;;;;;5069851;28;20787;-90
2023/09/11 00:24:58;;;;;;;4.67;4.27;;;27.30;72.00;;;;;;5066912;28;20465;-91
2023/09/11 00:27:45;;;;;;;6.27;5.67;;;27.30;72.10;;;;;;5070510;28;20488;-91
2023/09/11 00:30:32;;;;;;;5.37;4.97;;;27.30;72.00;;;;;;5078185;28;20575;-91
2023/09/11 00:33:18;;;;;;;5.20;4.80;;;27.30;71.90;;;;;;5060717;28;20585;-90
2023/09/11 00:36:06;;;;;;;5.20;4.63;;;27.30;72.50;;;;;;5068526;28;20489;-91
2023/09/11 00:38:54;;;;;;;5.27;4.87;;;27.30;72.30;;;;;;5064475;28;20465;-91
2023/09/11 00:41:42;;;;;;;5.40;4.90;;;27.30;72.60;;;;;;5077558;28;20515;-91
2023/09/11 00:44:30;;;;;;;5.33;4.83;;;27.30;72.80;;;;;;5068806;28;20456;-90
2023/09/11 00:47:17;;;;;;;5.43;5.07;;;27.30;73.40;;;;;;5068893;28;20535;-91
2023/09/11 00:50:05;;;;;;;5.63;5.13;;;27.30;74.00;;;;;;5070251;28;20477;-91
2023/09/11 00:52:52;;;;;;;6.20;5.60;;;27.30;75.20;;;;;;5078939;28;20429;-91
2023/09/11 00:55:43;;;;;;;6.03;5.53;;;27.20;76.70;;;;;;5072187;28;20622;-90
2023/09/11 00:58:30;;;;;;;5.20;4.37;;;27.30;79.10;;;;;;5066356;28;20461;-90
2023/09/11 01:01:18;;;;;;;5.53;5.13;;;27.30;81.90;;;;;;5065874;28;20476;-92
2023/09/11 01:04:06;;;;;;;5.80;5.20;;;27.30;76.20;;;;;;5067572;28;20470;-92
2023/09/11 01:06:54;;;;;;;5.30;4.80;;;27.30;76.40;;;;;;5055645;28;20480;-91
2023/09/11 01:09:41;;;;;;;5.23;4.73;;;27.30;77.30;;;;;;5066702;28;20891;-90
2023/09/11 01:12:29;;;;;;;6.00;4.80;;;27.20;79.20;;;;;;5063131;28;20429;-91
2023/09/11 01:15:16;;;;;;;5.17;4.77;;;27.20;84.10;;;;;;5054806;28;20477;-91
2023/09/11 01:18:10;;;;;;;4.63;4.23;;;27.20;73.90;;;;;;5069980;28;20469;-90
2023/09/11 01:21:13;;;;;;;5.03;4.63;;;27.20;74.90;;;;;;5070431;28;20480;-92
2023/09/11 01:24:28;;;;;;;5.43;5.03;;;27.20;75.40;;;;;;5065387;28;20461;-90
2023/09/11 01:27:57;;;;;;;5.70;5.20;;;27.20;76.30;;;;;;5079322;28;20830;-91
2023/09/11 01:30:47;;;;;;;5.30;4.80;;;27.20;75.30;;;;;;5069059;28;20472;-92
2023/09/11 01:33:34;;;;;;;5.03;4.63;;;27.20;75.90;;;;;;5081037;28;21118;-91
2023/09/11 01:36:21;;;;;;;5.37;4.97;;;27.20;76.90;;;;;;5088241;28;20472;-90
2023/09/11 01:39:08;;;;;;;5.10;4.70;;;27.20;86.70;;;;;;5074748;28;20571;-92
2023/09/11 01:42:07;;;;;;;5.53;5.03;;;27.20;80.70;;;;;;5081149;28;20431;-91
2023/09/11 01:44:56;;;;;;;5.20;4.80;;;27.20;80.10;;;;;;5085421;28;20460;-91
2023/09/11 01:47:47;;;;;;;5.90;5.40;;;27.20;84.60;;;;;;5068458;28;20453;-91
2023/09/11 01:50:36;;;;;;;5.80;5.30;;;27.20;82.60;;;;;;5074757;28;20524;-90
2023/09/11 01:53:24;;;;;;;5.30;4.80;;;27.20;84.00;;;;;;5069709;28;20448;-91
2023/09/11 01:56:11;;;;;;;5.20;4.70;;;27.20;76.60;;;;;;5079642;28;20483;-90
2023/09/11 01:58:58;;;;;;;5.63;4.80;;;27.20;76.10;;;;;;5069585;28;20465;-90
2023/09/11 02:01:45;;;;;;;4.80;4.40;;;27.20;75.80;;;;;;5084642;28;20425;-91
2023/09/11 02:04:34;;;;;;;5.43;4.93;;;27.10;75.40;;;;;;5069049;28;20511;-90
2023/09/11 02:07:21;;;;;;;5.43;4.93;;;27.20;75.00;;;;;;5066412;28;20457;-90
2023/09/11 02:10:09;;;;;;;5.67;4.40;;;27.20;74.80;;;;;;5084232;28;20831;-91
2023/09/11 02:12:55;;;;;;;5.43;4.97;;;27.20;75.10;;;;;;5080520;28;20415;-90
2023/09/11 02:15:42;;;;;;;5.00;4.60;;;27.20;75.10;;;;;;5089460;28;20510;-91
2023/09/11 02:18:29;;;;;;;5.37;4.83;;;27.20;75.40;;;;;;5074499;28;20535;-90
2023/09/11 02:21:18;;;;;;;5.80;5.07;;;27.10;75.40;;;;;;5080913;28;20495;-91
2023/09/11 02:24:05;;;;;;;5.00;4.60;;;27.10;75.50;;;;;;5080941;28;20493;-91
2023/09/11 02:26:52;;;;;;;4.80;4.47;;;27.10;75.20;;;;;;5074707;28;20527;-91
2023/09/11 02:29:39;;;;;;;5.97;5.43;;;27.10;75.40;;;;;;5077302;28;20489;-90
2023/09/11 02:32:26;;;;;;;5.63;5.23;;;27.10;75.50;;;;;;5075147;28;20442;-91
2023/09/11 02:35:13;;;;;;;4.73;4.30;;;27.10;75.80;;;;;;5058477;28;20485;-90
2023/09/11 02:38:02;;;;;;;5.00;4.60;;;27.10;76.00;;;;;;5090071;28;20490;-91
2023/09/11 02:40:49;;;;;;;4.73;4.43;;;27.10;76.30;;;;;;5073757;28;20541;-91
2023/09/11 02:43:54;;;;;;;5.70;5.30;;;27.10;76.60;;;;;;5069601;28;20503;-91
2023/09/11 02:46:43;;;;;;;4.60;4.20;;;27.10;76.70;;;;;;5081901;28;20453;-91
2023/09/11 02:49:30;;;;;;;5.10;4.70;;;27.10;76.90;;;;;;5082243;28;20839;-90
2023/09/11 02:52:17;;;;;;;5.00;4.60;;;27.10;77.30;;;;;;5074678;28;20426;-92
2023/09/11 02:55:05;;;;;;;4.57;4.27;;;27.10;78.20;;;;;;5075767;28;20444;-92
2023/09/11 02:57:52;;;;;;;5.60;5.10;;;27.10;79.00;;;;;;5069057;28;20450;-90
2023/09/11 03:00:39;;;;;;;5.30;4.90;;;27.00;80.40;;;;;;5077137;28;20515;-91
2023/09/11 03:03:25;;;;;;;5.73;5.33;;;27.00;81.40;;;;;;5069965;28;20710;-91
2023/09/11 03:06:13;;;;;;;5.00;4.60;;;27.00;83.00;;;;;;5077118;28;20559;-90
2023/09/11 03:09:00;;;;;;;5.40;4.83;;;27.00;78.80;;;;;;5073252;28;20476;-91
2023/09/11 03:11:48;;;;;;;5.47;5.00;;;27.00;77.10;;;;;;5077210;28;20444;-89
2023/09/11 03:14:35;;;;;;;4.93;4.57;;;27.00;71.60;;;;;;5082567;28;21017;-91
2023/09/11 03:17:22;;;;;;;4.97;4.57;;;27.00;70.00;;;;;;5065758;28;20981;-91
2023/09/11 03:20:10;;;;;;;5.10;4.70;;;27.00;70.10;;;;;;5074551;28;20456;-90
2023/09/11 03:22:59;;;;;;;6.43;4.77;;;27.00;70.10;;;;;;5081942;28;20412;-90
2023/09/11 03:25:47;;;;;;;5.83;5.33;;;27.00;70.20;;;;;;5072358;28;20485;-90
2023/09/11 03:28:36;;;;;;;6.00;5.17;;;27.00;71.10;;;;;;5073068;28;20438;-91
2023/09/11 03:31:23;;;;;;;5.30;4.90;;;27.00;71.20;;;;;;5071580;28;20456;-90
2023/09/11 03:34:10;;;;;;;5.00;4.60;;;27.00;71.40;;;;;;5080750;28;20491;-90
2023/09/11 03:36:58;;;;;;;4.03;3.73;;;27.00;72.90;;;;;;5089163;28;20807;-90
2023/09/11 03:39:44;;;;;;;5.40;5.00;;;27.00;72.30;;;;;;5084201;28;20468;-90
2023/09/11 03:42:31;;;;;;;5.07;4.57;;;;;;;;;;5074336;28;20508;-90
2023/09/11 03:45:20;;;;;;;5.50;5.00;;;26.90;62.80;;;;;;5090588;28;21015;-90
2023/09/11 03:48:07;;;;;;;4.97;4.60;;;26.90;64.60;;;;;;5062987;28;20476;-91
2023/09/11 03:50:54;;;;;;;5.37;4.43;;;26.90;64.00;;;;;;5071652;28;20461;-92
2023/09/11 03:53:44;;;;;;;4.90;4.50;;;26.90;65.30;;;;;;5073621;28;20429;-91
2023/09/11 03:56:34;;;;;;;5.43;4.73;;;26.90;63.90;;;;;;5081000;28;20547;-91
2023/09/11 03:59:21;;;;;;;6.50;4.87;;;26.90;63.90;;;;;;5069760;28;20472;-90
2023/09/11 04:02:09;;;;;;;5.07;4.67;;;26.90;63.90;;;;;;5083551;28;20433;-92
2023/09/11 04:04:56;;;;;;;5.33;4.93;;;26.90;63.90;;;;;;5086238;28;20463;-91
2023/09/11 04:07:43;;;;;;;5.40;5.00;;;26.90;63.90;;;;;;5075228;28;20865;-91
2023/09/11 04:10:30;;;;;;;5.70;5.20;;;26.90;63.80;;;;;;5064342;28;20459;-91
2023/09/11 04:13:17;;;;;;;5.20;4.80;;;26.90;63.80;;;;;;5082212;28;20452;-90
2023/09/11 04:16:05;;;;;;;4.80;4.50;;;26.90;63.90;;;;;;5076659;28;20461;-91
2023/09/11 04:18:53;;;;;;;5.60;4.90;;;26.90;63.90;;;;;;5065807;28;20441;-92
2023/09/11 04:21:40;;;;;;;5.43;4.93;;;26.90;63.90;;;;;;5068168;28;20977;-92
2023/09/11 04:24:27;;;;;;;7.43;5.50;;;26.90;63.90;;;;;;5058029;28;20466;-90
2023/09/11 04:27:14;;;;;;;4.50;4.10;;;26.90;63.80;;;;;;5071826;28;20547;-92
2023/09/11 04:30:02;;;;;;;4.80;4.50;;;26.80;63.70;;;;;;5055851;28;20462;-91
2023/09/11 04:32:49;;;;;;;5.30;4.80;;;26.80;63.80;;;;;;5069392;28;20583;-92
2023/09/11 04:35:38;;;;;;;7.00;5.00;;;26.80;64.00;;;;;;5070818;28;20840;-92
2023/09/11 04:38:25;;;;;;;4.67;4.20;;;26.80;63.80;;;;;;5066388;28;20515;-91
2023/09/11 04:41:14;;;;;;;5.07;4.67;;;26.80;63.90;;;;;;5077958;28;20539;-92
2023/09/11 04:44:01;;;;;;;5.10;4.70;;;26.80;63.80;;;;;;5063205;28;20477;-92
2023/09/11 04:46:47;;;;;;;5.20;4.80;;;26.80;63.90;;;;;;5066835;28;20453;-91
2023/09/11 04:49:34;;;;;;;4.90;4.50;;;26.80;63.80;;;;;;5080500;28;20461;-91
2023/09/11 04:52:23;;;;;;;5.77;5.37;;;26.80;63.80;;;;;;5079485;28;20441;-91
2023/09/11 04:55:12;;;;;;;4.70;4.30;;;26.80;63.80;;;;;;5082655;28;20568;-91
2023/09/11 04:57:59;;;;;;;6.30;4.90;;;26.80;63.70;;;;;;5079880;28;20999;-92
2023/09/11 05:00:46;;;;;;;4.77;4.37;;;26.80;63.80;;;;;;5071634;28;20469;-93
2023/09/11 05:03:33;;;;;;;5.17;4.67;;;26.80;63.80;;;;;;5060978;28;20434;-91
2023/09/11 05:06:20;;;;;;;5.63;5.13;;;26.80;63.70;;;;;;5060052;28;20586;-91
2023/09/11 05:09:08;;;;;;;5.17;4.67;;;26.80;63.70;;;;;;5054411;28;20508;-93
2023/09/11 05:12:01;;;;;;;5.50;4.90;;;26.80;63.70;;;;;;5062799;28;20449;-92
2023/09/11 05:14:48;;;;;;;4.87;4.47;;;26.80;63.80;;;;;;5082363;28;20465;-93
2023/09/11 05:17:36;;;;;;;5.57;5.07;;;26.70;63.80;;;;;;5071598;28;20453;-92
2023/09/11 05:20:23;;;;;;;5.27;4.77;;;26.80;63.70;;;;;;5067633;28;20481;-92
2023/09/11 05:23:10;;;;;;;5.30;4.90;;;26.80;63.80;;;;;;5060572;28;20958;-93
2023/09/11 05:25:59;;;;;;;4.20;3.90;;;26.70;63.70;;;;;;5067645;28;20469;-92
2023/09/11 05:28:46;;;;;;;4.77;4.40;;;26.70;65.00;;;;;;5070725;28;20461;-91
2023/09/11 05:31:36;;;;;;;5.10;4.70;;;26.70;63.60;;;;;;5066119;28;20424;-92
2023/09/11 05:34:23;;;;;;;5.07;4.57;;;26.70;63.70;;;;;;5062396;28;20583;-92
2023/09/11 05:37:09;;;;;;;5.30;4.90;;;26.70;63.70;;;;;;5070881;28;20989;-91
2023/09/11 05:39:56;;;;;;;4.57;4.20;;;26.70;63.80;;;;;;5069436;28;20456;-91
2023/09/11 05:42:44;;;;;;;5.20;4.80;;;26.70;63.80;;;;;;5067693;28;20445;-91
2023/09/11 05:45:31;;;;;;;5.50;4.87;;;26.70;63.60;;;;;;5062395;28;20458;-93
2023/09/11 05:48:20;;;;;;;4.97;4.50;;;26.70;63.90;;;;;;5056564;28;20416;-92
2023/09/11 05:51:09;;;;;;;4.73;4.33;;;26.70;63.80;;;;;;5071499;28;20448;-92
2023/09/11 05:53:57;;;;;;;4.97;4.57;;;26.70;63.80;;;;;;5070974;28;20421;-92
2023/09/11 05:56:44;;;;;;;4.80;4.50;;;26.70;63.70;;;;;;5070569;28;21001;-92
2023/09/11 05:59:34;;;;;;;5.00;4.50;;;26.60;63.80;;;;;;5059904;28;20464;-93
2023/09/11 06:02:21;;;;;;;6.00;4.70;;;26.60;63.80;;;;;;5059326;28;20772;-93
2023/09/11 06:05:09;;;;;;;5.50;4.20;;;26.60;63.80;;;;;;5066918;28;20464;-91
2023/09/11 06:07:56;;;;;;;5.00;4.53;;;26.60;64.00;;;;;;5065116;28;20674;-93
2023/09/11 06:10:45;;;;;;;5.00;4.50;;;26.60;63.90;;;;;;5074362;28;20465;-94
2023/09/11 06:13:34;;;;;;;4.57;4.27;;;26.60;64.00;;;;;;5083247;28;20515;-93
2023/09/11 06:16:23;;;;;;;5.20;4.67;;;26.60;64.10;;;;;;5059122;28;20492;-93
2023/09/11 06:19:12;;;;;;;4.13;3.83;;;26.60;64.10;;;;;;5069414;28;20454;-93
2023/09/11 06:22:00;;;;;;;4.90;4.50;;;26.60;64.20;;;;;;5071077;28;20593;-92
2023/09/11 06:24:48;;;;;;;4.43;4.03;;;26.60;64.00;;;;;;5058899;28;20468;-91
2023/09/11 06:27:35;;;;;;;5.17;4.67;;;26.60;64.30;;;;;;5069083;28;20450;-92
2023/09/11 06:30:22;;;;;;;4.57;4.17;;;26.60;64.10;;;;;;5070368;28;20460;-94
2023/09/11 06:33:11;;;;;;;4.67;4.27;;;26.60;64.30;;;;;;5084823;28;20447;-92
2023/09/11 06:35:59;;;;;;;4.70;4.30;;;26.60;64.40;;;;;;5069881;28;20461;-93
2023/09/11 06:38:46;;;;;;;4.50;4.10;;;26.60;64.40;;;;;;5070440;28;20436;-92
2023/09/11 06:41:34;;;;;;;4.70;4.30;;;26.60;64.50;;;;;;5063073;28;20466;-93
2023/09/11 06:44:22;;;;;;;5.63;5.07;;;26.60;64.50;;;;;;5068851;28;21010;-92
2023/09/11 06:47:12;;;;;;;5.57;5.10;;;26.60;64.40;;;;;;5073903;28;20442;-94
2023/09/11 06:50:03;;;;;;;4.47;4.07;;;26.60;64.60;;;;;;5081545;28;20466;-92
2023/09/11 06:52:51;;;;;;;4.93;4.63;;;26.60;64.70;;;;;;5073777;28;20492;-93
2023/09/11 06:55:44;;;;;;;5.93;4.80;;;26.50;64.70;;;;;;5072530;28;20476;-92
2023/09/11 06:58:31;;;;;;;4.43;4.00;;;26.60;64.80;;;;;;5076896;28;20425;-94
2023/09/11 07:01:19;;;;;;;4.30;4.00;;;26.50;64.80;;;;;;5072976;28;20601;-92
2023/09/11 07:04:07;;;;;;;4.23;3.93;;;26.50;64.90;;;;;;5072979;28;20484;-92
2023/09/11 07:06:56;;;;;;;3.97;3.67;;;26.50;64.90;;;;;;5073316;28;20477;-94
2023/09/11 07:09:43;;;;;;;4.00;3.70;;;26.50;64.90;;;;;;5060210;28;20835;-92
2023/09/11 07:12:32;;;;;;;4.60;4.30;;;26.60;65.00;;;;;;5068033;28;20505;-92
2023/09/11 07:15:22;;;;;;;4.10;3.80;;;26.50;65.10;;;;;;5058303;28;20481;-94
2023/09/11 07:18:10;;;;;;;5.43;4.20;;;26.60;65.20;;;;;;5055742;28;20576;-93
2023/09/11 07:21:00;;;;;;;4.20;3.80;;;26.50;65.20;;;;;;5066573;28;20475;-94
2023/09/11 07:23:48;;;;;;;4.30;4.00;;;26.50;65.10;;;;;;5072915;28;20954;-94
2023/09/11 07:26:38;;;;;;;3.73;3.43;;;26.60;65.20;;;;;;5076694;28;20442;-92
2023/09/11 07:29:27;;;;;;;3.93;3.63;;;26.50;65.20;;;;;;5058381;28;20457;-92
2023/09/11 07:32:20;;;;;;;4.60;4.20;;;26.60;65.20;;;;;;5071449;28;20499;-94
2023/09/11 07:35:14;;;;;;;4.57;4.17;;;26.60;65.20;;;;;;5070989;28;20555;-94
2023/09/11 07:38:08;;;;;;;4.10;3.80;;;26.50;65.20;;;;;;5071652;28;20519;-93
2023/09/11 07:40:57;;;;;;;3.97;3.67;;;26.60;65.30;;;;;;5071342;28;20466;-94
2023/09/11 07:43:48;;;;;;;4.40;4.00;;;26.60;65.20;;;;;;5072748;28;20960;-93
2023/09/11 07:46:35;;;;;;;4.10;3.80;;;26.60;65.20;;;;;;5081015;28;20450;-93
2023/09/11 07:49:23;;;;;;;3.73;3.43;;;26.60;65.20;;;;;;5049740;28;20547;-93
2023/09/11 07:52:15;;;;;;;4.17;3.83;;;26.50;65.30;;;;;;5071773;28;21255;-93
2023/09/11 07:55:02;;;;;;;5.97;4.23;;;26.60;65.20;;;;;;5064627;28;20458;-92
2023/09/11 07:57:52;;;;;;;4.20;3.90;;;26.50;65.20;;;;;;5071447;28;20567;-94
2023/09/11 08:00:46;;;;;;;4.27;3.97;;;26.60;65.20;;;;;;5079735;28;20604;-92
2023/09/11 08:03:34;;;;;;;3.57;3.27;;;26.60;65.30;;;;;;5072061;28;20437;-93
2023/09/11 08:06:22;;;;;;;4.37;3.97;;;26.60;65.20;;;;;;5067172;28;20504;-93
2023/09/11 08:09:19;;;;;;;3.80;3.50;;;26.60;65.20;;;;;;5067860;28;20466;-93
2023/09/11 08:12:06;;;;;;;3.43;3.20;;;26.60;65.20;;;;;;5072136;28;20429;-92
2023/09/11 08:14:55;;;;;;;3.90;3.60;;;26.60;65.20;;;;;;5070245;28;20834;-92
2023/09/11 08:17:42;;;;;;;4.50;4.20;;;26.60;65.30;;;;;;5061606;28;20510;-92
2023/09/11 08:20:29;;;;;;;4.50;4.10;;;26.60;65.20;;;;;;5070468;28;20469;-93
2023/09/11 08:23:18;;;;;;;3.33;3.03;;;26.60;65.20;;;;;;5071424;28;20448;-93
2023/09/11 08:26:05;;;;;;;3.73;3.40;;;26.60;65.20;;;;;;5068999;28;20472;-93
2023/09/11 08:28:51;;;;;;;4.63;4.27;;;26.60;65.20;;;;;;5068059;28;20440;-92
2023/09/11 08:31:43;;;;;;;4.03;3.73;;;26.60;65.20;;;;;;5066921;28;20446;-91
2023/09/11 08:34:31;;;;;;;3.50;3.20;;;26.60;65.20;;;;;;5060131;28;20902;-92
2023/09/11 08:37:18;;;;;;;4.67;4.27;;;26.60;65.20;;;;;;5069340;28;20422;-93
2023/09/11 08:40:14;;;;;;;3.40;3.10;;;26.60;65.20;;;;;;5067576;28;20466;-93
2023/09/11 08:43:07;;;;;;;4.13;3.77;;;26.60;65.30;;;;;;5071591;28;20456;-93
2023/09/11 08:46:02;;;;;;;3.57;3.27;;;26.60;65.30;;;;;;5060824;28;20476;-94
2023/09/11 08:49:01;;;;;;;4.40;4.10;;;26.60;65.40;;;;;;5063890;28;20446;-92
2023/09/11 08:51:52;;;;;;;3.73;3.43;;;26.60;65.30;;;;;;5063235;28;20429;-92
2023/09/11 08:54:43;;;;;;;3.40;3.10;;;26.60;65.30;;;;;;5068032;28;20476;-92
2023/09/11 08:57:32;;;;;;;3.93;3.63;;;26.60;65.50;;;;;;5066606;28;20483;-92
2023/09/11 09:00:21;;;;;;;4.50;4.10;;;26.60;65.50;;;;;;5064443;28;20477;-92
2023/09/11 09:03:09;;;;;;;3.90;3.60;;;26.60;65.40;;;;;;5072720;28;20550;-93
2023/09/11 09:05:58;;;;;;;3.47;3.17;;;26.60;65.40;;;;;;5070180;28;20462;-93
2023/09/11 09:08:45;;;;;;;4.20;3.80;;;26.60;65.50;;;;;;5054387;28;20513;-91
2023/09/11 09:11:33;;;;;;;4.03;3.60;;;26.60;65.40;;;;;;5072780;28;20981;-93
2023/09/11 09:14:27;;;;;;;4.30;4.00;;;26.60;65.40;;;;;;5060243;28;20509;-93
2023/09/11 09:17:14;;;;;;;4.13;3.73;;;26.60;65.40;;;;;;5071466;28;20549;-93
2023/09/11 09:20:05;;;;;;;3.97;3.67;;;26.60;65.40;;;;;;5078061;28;20520;-92
2023/09/11 09:22:56;;;;;;;4.40;3.53;;;26.60;65.40;;;;;;5072293;28;20511;-91
2023/09/11 09:25:43;;;;;;;4.33;3.70;;;26.60;65.40;;;;;;5071694;28;20453;-94
2023/09/11 09:28:35;;;;;;;4.00;3.67;;;26.60;65.50;;;;;;5067247;28;20516;-95
2023/09/11 09:31:24;;;;;;;4.63;3.40;;;26.60;65.40;;;;;;5071762;28;20464;-92
2023/09/11 09:34:19;;;;;;;4.10;3.80;;;26.60;65.50;;;;;;5064011;28;20480;-94
2023/09/11 09:37:16;;;;;;;3.70;3.40;;;26.60;65.50;;;;;;5061813;28;20448;-94
2023/09/11 09:40:08;;;;;;;3.70;3.40;;;26.60;65.40;;;;;;5063569;28;20468;-94
2023/09/11 09:42:58;;;;;;;3.90;3.60;;;26.60;65.50;;;;;;5075818;28;20500;-94
2023/09/11 09:46:17;;;;;;;4.03;3.73;;;26.60;65.50;;;;;;5074715;28;20457;-92
2023/09/11 09:49:21;;;;;;;4.17;3.87;;;26.60;65.50;;;;;;5074283;28;20834;-94
2023/09/11 09:52:30;;;;;;;3.87;3.57;;;26.60;65.60;;;;;;5076015;28;20797;-93
2023/09/11 09:55:43;;;;;;;3.70;3.43;;;26.60;65.50;;;;;;5074724;28;20949;-94
2023/09/11 09:58:47;;;;;;;3.53;3.23;;;26.60;65.60;;;;;;5079975;28;20449;-95
2023/09/11 10:01:45;;;;;;;4.60;4.20;;;26.60;65.50;;;;;;5077271;28;20466;-93
2023/09/11 10:04:34;;;;;;;4.90;3.57;;;26.60;65.50;;;;;;5064445;28;20555;-93
2023/09/11 10:11:56;;;;;;;4.23;3.50;;;26.60;65.60;;;;;;5069669;28;20454;-94
2023/09/11 10:15:11;;;;;;;3.90;3.50;;;26.60;65.60;;;;;;5068416;28;20472;-95
2023/09/11 10:18:11;;;;;;;3.50;3.30;;;26.60;65.70;;;;;;5061047;28;20438;-93
2023/09/11 10:21:17;;;;;;;3.50;3.30;;;26.60;65.60;;;;;;5049780;28;20490;-93
2023/09/11 10:24:11;;;;;;;3.80;3.50;;;26.50;65.60;;;;;;5060115;28;20834;-92
2023/09/11 10:27:07;;;;;;;7.83;3.83;;;26.60;65.70;;;;;;5073363;28;20449;-93
2023/09/11 10:30:20;;;;;;;3.10;2.90;;;26.60;65.60;;;;;;5070048;28;20465;-94
2023/09/11 10:33:13;;;;;;;4.10;3.80;;;26.60;65.80;;;;;;5075520;28;20425;-93
2023/09/11 10:36:14;;;;;;;3.87;3.60;;;26.60;65.70;;;;;;5071587;28;20473;-93
2023/09/11 10:39:06;;;;;;;3.70;3.40;;;26.60;65.70;;;;;;5067503;28;20441;-92
2023/09/11 10:41:54;;;;;;;4.27;3.97;;;26.60;65.60;;;;;;5087362;28;20815;-93
2023/09/11 10:44:47;;;;;;;3.67;3.37;;;26.60;65.60;;;;;;5063189;28;20604;-92
2023/09/11 10:47:49;;;;;;;4.10;3.67;;;26.60;65.60;;;;;;5062343;28;20430;-92
2023/09/11 10:50:39;;;;;;;4.33;3.93;;;26.60;65.40;;;;;;5057730;28;21018;-94
2023/09/11 10:53:32;;;;;;;4.70;3.67;;;26.60;65.30;;;;;;5067969;28;20433;-95
2023/09/11 10:56:23;;;;;;;4.47;4.07;;;26.60;65.40;;;;;;5083601;28;20714;-93
2023/09/11 10:59:11;;;;;;;6.43;4.37;;;26.60;65.40;;;;;;5067742;28;20492;-94
2023/09/11 11:02:05;;;;;;;3.83;3.53;;;26.60;65.40;;;;;;5071312;28;20441;-92
2023/09/11 11:04:57;;;;;;;4.37;3.97;;;26.60;65.40;;;;;;5079016;28;20543;-93
2023/09/11 11:08:02;;;;;;;3.97;3.67;;;26.60;65.40;;;;;;5065454;28;20503;-94
2023/09/11 11:10:57;;;;;;;3.50;3.20;;;26.60;65.40;;;;;;5074018;28;20527;-94
2023/09/11 11:14:12;;;;;;;4.30;3.90;;;26.60;65.30;;;;;;5073993;28;20965;-95
2023/09/11 11:17:08;;;;;;;6.30;3.93;;;26.60;65.20;;;;;;5064984;28;20461;-93
2023/09/11 11:20:01;;;;;;;4.40;4.00;;;26.60;65.20;;;;;;5087943;28;20465;-95
2023/09/11 11:22:48;;;;;;;4.47;4.07;;;26.60;65.20;;;;;;5069668;28;20457;-94
2023/09/11 11:25:49;;;;;;;4.77;4.30;;;26.60;65.20;;;;;;5071737;28;20468;-93
2023/09/11 11:29:11;;;;;;;4.47;4.07;;;26.60;65.20;;;;;;5070698;28;20452;-93
2023/09/11 11:32:36;;;;;;;4.77;4.37;;;26.60;65.20;;;;;;5074514;28;21131;-94
2023/09/11 11:35:44;;;;;;;4.07;3.77;;;26.70;65.30;;;;;;5046256;28;20490;-93
2023/09/11 11:38:59;;;;;;;4.10;3.80;;;26.60;65.30;;;;;;5069740;28;20438;-95
2023/09/11 11:41:54;;;;;;;4.57;4.03;;;26.70;65.40;;;;;;5068060;28;20464;-94
2023/09/11 11:44:57;;;;;;;3.77;3.47;;;26.60;65.20;;;;;;5069673;28;20465;-94
2023/09/11 11:48:34;;;;;;;4.60;4.20;;;26.70;65.30;;;;;;5071416;28;20438;-94
2023/09/11 11:52:08;;;;;;;4.43;4.10;;;26.60;65.30;;;;;;5055982;28;20450;-95
2023/09/11 11:56:08;;;;;;;4.70;4.30;;;26.70;65.40;;;;;;5009855;28;20486;-95
2023/09/11 11:59:43;;;;;;;3.93;3.63;;;26.70;65.40;;;;;;4990989;28;20495;-95
2023/09/11 12:03:21;;;;;;;4.00;3.70;;;26.70;65.50;;;;;;5008405;28;20472;-94
2023/09/11 12:06:13;;;;;;;4.03;3.73;;;26.60;65.30;;;;;;5013899;28;20473;-94
2023/09/11 12:09:28;;;;;;;4.97;4.57;;;26.70;65.40;;;;;;5005218;28;20889;-95
2023/09/11 12:12:55;;;;;;;4.20;3.90;;;26.70;65.50;;;;;;5024566;28;20435;-95
2023/09/11 12:16:15;;;;;;;5.07;4.57;;;26.70;65.60;;;;;;5030384;28;21062;-95
2023/09/11 12:19:04;;;;;;;4.37;4.07;;;26.70;65.40;;;;;;5029136;28;20442;-92
2023/09/11 12:22:00;;;;;;;5.17;4.77;;;26.70;65.50;;;;;;5013355;28;20949;-95
2023/09/11 12:24:54;;;;;;;4.50;4.20;;;26.70;65.30;;;;;;5010280;28;20462;-94
2023/09/11 12:27:46;;;;;;;4.90;4.50;;;26.70;65.40;;;;;;5004728;28;20463;-93
2023/09/11 12:30:33;;;;;;;5.40;4.90;;;26.70;65.50;;;;;;5000302;28;21318;-94
2023/09/11 12:33:24;;;;;;;4.27;3.93;;;26.70;65.50;;;;;;5062736;28;20421;-94
2023/09/11 12:36:11;;;;;;;9.10;4.60;;;26.70;65.40;;;;;;5059355;28;20468;-93
2023/09/11 12:39:05;;;;;;;4.90;4.50;;;26.70;65.40;;;;;;5057188;28;20428;-93
2023/09/11 12:41:53;;;;;;;4.77;4.37;;;26.80;65.40;;;;;;5068022;28;20543;-93
2023/09/11 12:44:50;;;;;;;4.83;4.43;;;26.70;65.40;;;;;;5068135;28;20480;-93
2023/09/11 12:47:42;;;;;;;4.67;4.30;;;26.70;65.30;;;;;;5063572;28;20449;-94
2023/09/11 12:50:35;;;;;;;4.40;4.00;;;26.70;65.30;;;;;;5064908;28;20469;-94
2023/09/11 12:53:32;;;;;;;4.77;4.33;;;26.70;65.40;;;;;;5062513;28;20908;-94
2023/09/11 12:56:26;;;;;;;4.80;4.47;;;26.70;65.30;;;;;;5086679;28;20456;-93
2023/09/11 12:59:27;;;;;;;5.60;5.10;;;26.80;65.40;;;;;;5059425;28;20471;-93
2023/09/11 13:02:38;;;;;;;4.77;4.37;;;26.80;65.50;;;;;;5058399;28;20413;-93
2023/09/11 13:05:25;;;;;;;5.50;4.83;;;26.80;65.30;;;;;;5064241;28;20834;-93
2023/09/11 13:08:15;;;;;;;4.77;4.37;;;26.80;65.30;;;;;;5066130;28;20503;-95
2023/09/11 13:11:05;;;;;;;5.50;5.00;;;26.80;65.40;;;;;;5061999;28;20466;-93
2023/09/11 13:13:54;;;;;;;4.40;4.00;;;26.80;65.50;;;;;;5073533;28;20982;-93
2023/09/11 13:17:04;;;;;;;4.57;4.17;;;26.80;65.40;;;;;;5069234;28;20598;-92
2023/09/11 13:19:53;;;;;;;5.20;4.80;;;26.80;65.40;;;;;;5070187;28;20828;-91
2023/09/11 13:22:42;;;;;;;5.33;4.93;;;26.80;65.40;;;;;;5069666;28;20450;-94
2023/09/11 13:25:33;;;;;;;4.97;4.47;;;26.80;65.40;;;;;;5067749;28;20615;-94
2023/09/11 13:28:22;;;;;;;5.33;4.83;;;26.80;65.30;;;;;;5064429;28;20454;-94
2023/09/11 13:31:34;;;;;;;5.50;5.10;;;26.80;65.40;;;;;;5060833;28;20492;-92
2023/09/11 13:34:26;;;;;;;4.97;4.50;;;26.80;65.30;;;;;;5068764;28;20469;-94
2023/09/11 13:37:18;;;;;;;5.57;5.07;;;26.80;65.30;;;;;;5065361;28;20555;-93
2023/09/11 13:40:15;;;;;;;5.90;5.30;;;26.80;65.30;;;;;;5070450;28;20465;-92
2023/09/11 13:43:12;;;;;;;5.33;4.90;;;26.90;65.30;;;;;;5086058;28;20472;-94
2023/09/11 13:46:17;;;;;;;5.20;4.70;;;26.90;65.30;;;;;;5065738;28;20465;-92
2023/09/11 13:49:27;;;;;;;5.60;5.20;;;26.90;65.30;;;;;;5060656;28;20831;-93
2023/09/11 13:52:20;;;;;;;5.43;4.90;;;26.90;65.20;;;;;;5063287;28;21983;-93
2023/09/11 13:55:22;;;;;;;5.63;5.13;;;26.90;65.20;;;;;;5067466;28;20519;-93
2023/09/11 13:58:16;;;;;;;4.80;4.40;;;26.90;65.40;;;;;;5062293;28;20564;-93
2023/09/11 14:01:04;;;;;;;5.77;5.27;;;26.90;65.40;;;;;;5072140;28;20481;-93
2023/09/11 14:04:08;;;;;;;6.00;5.50;;;26.90;65.50;;;;;;5079026;28;20996;-94
2023/09/11 14:07:08;;;;;;;6.10;5.57;;;26.90;65.50;;;;;;5070223;28;20444;-94
2023/09/11 14:09:55;;;;;;;4.70;4.30;;;26.90;65.50;;;;;;5062531;28;20485;-94
2023/09/11 14:12:44;;;;;;;4.97;4.63;;;26.90;65.50;;;;;;5066178;28;20573;-92
2023/09/11 14:15:40;;;;;;;5.87;5.47;;;26.90;65.60;;;;;;5061018;28;20461;-92
2023/09/11 14:18:35;;;;;;;5.50;5.00;;;26.90;65.60;;;;;;5073779;28;20511;-94
2023/09/11 14:21:33;;;;;;;7.40;5.07;;;27.00;65.70;;;;;;5057449;28;20449;-94
2023/09/11 14:24:24;;;;;;;5.70;5.20;;;27.00;65.60;;;;;;5056665;28;20489;-94
2023/09/11 14:27:20;;;;;;;5.30;4.90;;;26.90;65.50;;;;;;5064857;28;20525;-93
2023/09/11 14:30:16;;;;;;;5.47;5.07;;;26.90;65.60;;;;;;5060993;28;20465;-93
2023/09/11 14:33:08;;;;;;;5.20;4.80;;;27.00;65.70;;;;;;5069083;28;20822;-93
2023/09/11 14:36:03;;;;;;;5.90;5.40;;;26.90;65.70;;;;;;5072121;28;20536;-94
2023/09/11 14:39:09;;;;;;;5.60;5.03;;;27.00;65.70;;;;;;5069098;28;20962;-94
2023/09/11 14:42:06;;;;;;;5.17;4.77;;;27.00;65.60;;;;;;5071528;28;20477;-93
2023/09/11 14:44:56;;;;;;;5.57;5.17;;;27.00;65.50;;;;;;5071872;28;21018;-93
2023/09/11 14:47:43;;;;;;;4.97;4.60;;;27.00;65.40;;;;;;5068013;28;20519;-93
2023/09/11 14:50:57;;;;;;;5.60;5.20;;;27.00;65.30;;;;;;5063415;28;20469;-92
2023/09/11 14:54:12;;;;;;;5.47;5.07;;;27.00;65.30;;;;;;5065760;28;20480;-94
2023/09/11 14:57:12;;;;;;;5.47;4.97;;;27.00;65.30;;;;;;5071652;28;20444;-94
2023/09/11 15:00:29;;;;;;;5.30;4.90;;;27.10;65.40;;;;;;5069019;28;20508;-93
2023/09/11 15:08:08;;;;;;;5.93;5.43;;;27.10;65.10;;;;;;5073190;28;20468;-96
2023/09/11 15:15:27;;;;;;;5.93;5.43;;;27.10;65.20;;;;;;5058767;28;20465;-94